Terminal Aerodrome Forecast
Issued by NWS

Home | Current Version | Previous Version | Text Only | Print | Product List | Glossary On
Versions: 1 2 3 4 5 6 7 8 9 10 11 12 13
000
FTUS46 KMTR 202320
TAFOAK
TAF
KOAK 202320Z 2100/2206 28008KT P6SM FEW015 FEW200
     FM210500 30004KT P6SM FEW015 SCT150
     FM211400 VRB03KT P6SM SCT015 BKN024 OVC100
     FM211800 VRB03KT P6SM SCT018 BKN028 OVC100
     FM212100 22010KT P6SM VCSH SCT020 SCT030 OVC100
     FM220300 19014G21KT 6SM -RA BR BKN020 OVC080=

USA.gov is the U.S. government's official web portal to all federal, state and local government web resources and services.